LKMT/OSR METAR and TAF weather

Enter ICAO airport designator
Station Type Date Time Source
LKMT METAR 2019/08/24 06:30 UTC NOAA

LKMT 240630Z 03005KT 350V070 6000 OVC006 17/16 Q1024 TEMPO BKN010


Station Type Date Time Source
LKMT Decoded METAR 2019/08/24 06:30 UTC NOAA

Station name not available
Aug 24, 2019 - 02:30 AM EDT / 2019.08.24 0630 UTC
Wind: from the NNE (030 degrees) at 6 MPH (5 KT) (direction variable):0
Visibility: 3 mile(s):0
Sky conditions: overcast
Temperature: 62 F (17 C)
Dew Point: 60 F (16 C)
Relative Humidity: 93%
Pressure (altimeter): 30.24 in. Hg (1024 hPa)
ob: LKMT 240630Z 03005KT 350V070 6000 OVC006 17/16 Q1024 TEMPO BKN010
cycle: 6

Station Type Date Time Source
LKMT TAF 2019/08/24 06:16 UTC NOAA

TAF LKMT 240500Z 2406/2512 04004KT 7000 OVC008
BECMG 2406/2408 OVC013
BECMG 2408/2410 9999 SCT025
BECMG 2410/2412 CAVOK
TEMPO 2413/2418 9999 FEW045CB PROB30
TEMPO 2415/2418 4000 TSRA SCT035CB
TEMPO 2501/2505 3000 BR NSC

Example: see airport list